Time;durP1;ratioP1;P1;durP2;ratioP2;P2;SDS_P1;SDS_P2;PMS_P1;PMS_P2;Temp;Humidity;BMP_temperature;BMP_pressure;BME280_temperature;BME280_humidity;BME280_pressure;Samples;Min_cycle;Max_cycle;Signal;HPM_P1;HPM_P2
2022/08/18 00:02:21;;;;;;;132.07;126.05;;;;;;;18.72;100.00;101235.31;5080715;28;20032;-71
2022/08/18 00:04:47;;;;;;;126.85;121.43;;;;;;;18.76;100.00;101247.28;5075147;28;20023;-71
2022/08/18 00:07:15;;;;;;;114.53;109.35;;;;;;;18.74;100.00;101227.94;5078966;28;20062;-71
2022/08/18 00:09:41;;;;;;;126.60;120.82;;;;;;;18.82;100.00;101241.19;5073471;28;20027;-71
2022/08/18 00:12:14;;;;;;;124.15;118.90;;;;;;;18.85;100.00;101235.44;5071356;28;20030;-71
2022/08/18 00:14:39;;;;;;;121.75;116.40;;;;;;;18.88;100.00;101237.75;5072873;28;20023;-70
2022/08/18 00:17:05;;;;;;;121.50;116.30;;;;;;;18.90;100.00;101237.53;5076718;28;20041;-71
2022/08/18 00:19:30;;;;;;;130.07;124.45;;;;;;;18.90;100.00;101230.34;5081762;28;20023;-71
2022/08/18 00:21:57;;;;;;;132.25;126.60;;;;;;;18.97;100.00;101238.44;5078102;28;20024;-71
2022/08/18 00:24:22;;;;;;;126.30;120.70;;;;;;;19.00;100.00;101242.56;5078890;28;20020;-72
2022/08/18 00:26:47;;;;;;;128.35;122.72;;;;;;;19.02;100.00;101245.84;5071681;28;20062;-71
2022/08/18 00:29:13;;;;;;;128.80;123.05;;;;;;;19.03;100.00;101242.16;5081501;28;20031;-72
2022/08/18 00:31:38;;;;;;;135.32;129.38;;;;;;;19.00;100.00;101240.69;5071446;28;20388;-71
2022/08/18 00:34:05;;;;;;;137.60;131.88;;;;;;;19.05;100.00;101242.78;5084050;28;20135;-72
2022/08/18 00:36:31;;;;;;;140.93;134.85;;;;;;;19.06;100.00;101236.41;5078427;28;20026;-71
2022/08/18 00:38:56;;;;;;;136.70;130.57;;;;;;;19.08;100.00;101245.09;5081933;28;20028;-71
2022/08/18 00:41:25;;;;;;;138.25;132.18;;;;;;;19.10;100.00;101248.38;5077666;28;20021;-71
2022/08/18 00:43:51;;;;;;;135.75;129.98;;;;;;;18.99;100.00;101230.19;5083967;28;20448;-71
2022/08/18 00:46:27;;;;;;;146.15;139.93;;;;;;;19.02;100.00;101235.16;5070120;28;20490;-71
2022/08/18 00:48:52;;;;;;;137.00;130.60;;;;;;;19.01;100.00;101233.50;5085636;28;20383;-71
2022/08/18 00:51:42;;;;;;;141.57;135.20;;;;;;;18.82;100.00;101205.63;5077953;28;20028;-71
2022/08/18 00:54:24;;;;;;;149.95;143.23;;;;;;;18.91;100.00;101221.31;5076212;28;20075;-71
2022/08/18 00:56:54;;;;;;;145.40;138.82;;;;;;;18.87;100.00;101214.69;5075133;28;20024;-71
2022/08/18 00:59:30;;;;;;;143.18;136.57;;;;;;;18.83;100.00;101209.94;5076555;28;20034;-71
2022/08/18 01:02:02;;;;;;;153.80;146.95;;;;;;;18.79;100.00;101214.88;5079914;28;20024;-71
2022/08/18 01:04:41;;;;;;;141.70;135.07;;;;;;;18.76;100.00;101222.41;5081572;28;20024;-71
2022/08/18 01:07:19;;;;;;;161.85;154.32;;;;;;;18.69;100.00;101228.53;5076543;28;20480;-71
2022/08/18 01:09:46;;;;;;;162.20;155.07;;;;;;;18.65;100.00;101219.22;5080991;28;20039;-71
2022/08/18 01:12:12;;;;;;;134.07;128.05;;;;;;;18.64;100.00;101222.09;5080235;28;20033;-71
2022/08/18 01:14:37;;;;;;;149.02;142.63;;;;;;;18.61;100.00;101214.47;5081454;28;20062;-71
2022/08/18 01:22:53;;;;;;;139.75;133.82;;;;;;;18.46;100.00;101217.22;5069129;28;20051;-71
2022/08/18 01:28:05;;;;;;;135.82;130.13;;;;;;;18.20;100.00;101201.78;5074348;28;20093;-71
2022/08/18 01:30:43;;;;;;;128.57;122.88;;;;;;;18.25;100.00;101216.25;5078159;28;20038;-71
2022/08/18 01:33:11;;;;;;;138.75;132.73;;;;;;;18.22;100.00;101215.78;5078642;28;20039;-71
2022/08/18 01:35:37;;;;;;;138.43;132.55;;;;;;;18.19;100.00;101208.16;5084744;28;20048;-71
2022/08/18 01:38:03;;;;;;;139.68;133.73;;;;;;;18.15;100.00;101206.91;5079274;28;20036;-71
2022/08/18 01:40:28;;;;;;;143.60;137.65;;;;;;;18.12;100.00;101212.59;5080975;28;20050;-71
2022/08/18 01:42:55;;;;;;;131.20;125.40;;;;;;;18.09;100.00;101209.31;5083388;28;20129;-71
2022/08/18 01:45:20;;;;;;;140.98;135.02;;;;;;;18.08;100.00;101215.66;5078156;28;20437;-71
2022/08/18 01:47:46;;;;;;;149.32;143.07;;;;;;;18.09;100.00;101219.16;5086129;28;20032;-71
2022/08/18 01:50:12;;;;;;;138.15;132.20;;;;;;;18.11;100.00;101227.00;5087416;28;20117;-71
2022/08/18 01:52:38;;;;;;;142.52;136.60;;;;;;;18.10;100.00;101244.88;5080254;28;20412;-71
2022/08/18 01:55:04;;;;;;;128.00;122.28;;;;;;;18.09;100.00;101240.53;5074763;28;20033;-71
2022/08/18 01:57:30;;;;;;;140.02;134.15;;;;;;;18.14;100.00;101245.28;5080131;28;20484;-71
2022/08/18 01:59:56;;;;;;;132.52;126.85;;;;;;;18.18;100.00;101243.91;5085309;28;20074;-71
2022/08/18 02:02:28;;;;;;;126.45;120.97;;;;;;;18.23;100.00;101241.50;5079200;28;20024;-71
2022/08/18 02:05:00;;;;;;;127.85;122.43;;;;;;;18.28;100.00;101239.06;5079181;28;20016;-71
2022/08/18 02:07:25;;;;;;;125.43;120.28;;;;;;;18.25;100.00;101228.78;5081754;28;20052;-71
2022/08/18 02:09:51;;;;;;;129.60;124.25;;;;;;;18.36;100.00;101238.94;5086836;28;20078;-71
2022/08/18 02:12:16;;;;;;;119.55;114.63;;;;;;;18.39;100.00;101243.06;5072301;28;20120;-71
2022/08/18 02:14:42;;;;;;;124.68;119.43;;;;;;;18.41;100.00;101246.38;5092236;28;20391;-71
2022/08/18 02:17:09;;;;;;;127.82;122.63;;;;;;;18.45;100.00;101245.81;5080267;28;20033;-72
2022/08/18 02:19:41;;;;;;;125.32;119.55;;;;;;;18.47;100.00;101233.09;5085475;28;20027;-71
2022/08/18 02:22:09;;;;;;;128.40;122.88;;;;;;;18.49;100.00;101228.38;5078723;28;20023;-71
2022/08/18 02:24:35;;;;;;;135.07;129.43;;;;;;;18.55;100.00;101220.59;5080315;28;20016;-71
2022/08/18 02:27:01;;;;;;;125.70;120.53;;;;;;;18.50;100.00;101213.16;5081702;28;20045;-71
2022/08/18 02:29:26;;;;;;;121.40;116.40;;;;;;;18.61;100.00;101227.84;5084926;28;20085;-71
2022/08/18 02:31:52;;;;;;;129.20;123.30;;;;;;;18.62;100.00;101219.63;5082905;28;20021;-71
2022/08/18 02:34:17;;;;;;;124.35;119.03;;;;;;;18.61;100.00;101215.28;5083519;28;20377;-71
2022/08/18 02:36:43;;;;;;;122.90;117.60;;;;;;;18.65;100.00;101213.06;5074950;28;20090;-71
2022/08/18 02:39:08;;;;;;;120.07;114.95;;;;;;;18.65;100.00;101219.22;5073232;28;20455;-71
2022/08/18 02:41:35;;;;;;;118.75;113.68;;;;;;;18.65;100.00;101223.75;5075446;28;20030;-71
2022/08/18 02:44:00;;;;;;;115.25;110.50;;;;;;;18.58;100.00;101194.31;5073861;28;20020;-71
2022/08/18 02:46:26;;;;;;;126.28;121.07;;;;;;;18.68;100.00;101210.84;5072928;28;20603;-71
2022/08/18 02:48:52;;;;;;;123.25;118.20;;;;;;;18.70;100.00;101215.97;5082394;28;20035;-70
2022/08/18 02:51:18;;;;;;;122.18;116.72;;;;;;;18.70;100.00;101214.16;5082103;28;20040;-72
2022/08/18 02:53:45;;;;;;;131.93;126.55;;;;;;;18.73;100.00;101214.75;5077288;28;20043;-72
2022/08/18 02:56:23;;;;;;;124.25;119.07;;;;;;;18.66;100.00;101210.22;5076646;28;20025;-72
2022/08/18 02:58:57;;;;;;;123.72;118.53;;;;;;;18.74;100.00;101211.91;5085980;28;20035;-72
2022/08/18 03:01:26;;;;;;;129.30;124.03;;;;;;;18.75;100.00;101213.56;5074432;28;20025;-72
2022/08/18 03:03:52;;;;;;;120.07;115.03;;;;;;;18.80;100.00;101216.50;5085377;28;20047;-72
2022/08/18 03:06:18;;;;;;;129.43;124.00;;;;;;;18.80;100.00;101219.19;5078034;28;20746;-70
2022/08/18 03:08:50;;;;;;;124.07;118.55;;;;;;;18.80;100.00;101216.50;5082634;28;20500;-70
2022/08/18 03:11:18;;;;;;;123.80;118.78;;;;;;;18.81;100.00;101228.00;5075121;28;20029;-71
2022/08/18 03:13:45;;;;;;;126.25;121.05;;;;;;;18.80;100.00;101226.38;5084982;28;20052;-71
2022/08/18 03:16:11;;;;;;;130.45;124.80;;;;;;;18.78;100.00;101218.53;5075766;28;20430;-71
2022/08/18 03:18:37;;;;;;;128.55;123.15;;;;;;;18.76;100.00;101217.88;5079539;28;20020;-72
2022/08/18 03:21:11;;;;;;;130.50;124.80;;;;;;;18.85;100.00;101230.09;5077036;28;20089;-71
2022/08/18 03:23:39;;;;;;;132.73;126.88;;;;;;;18.81;100.00;101222.66;5077913;28;20298;-71
2022/08/18 03:26:06;;;;;;;132.10;126.63;;;;;;;18.85;100.00;101224.75;5084432;28;20111;-71
2022/08/18 03:28:33;;;;;;;131.15;125.88;;;;;;;18.87;100.00;101227.25;5071214;28;20028;-71
2022/08/18 03:30:58;;;;;;;127.47;121.93;;;;;;;18.88;100.00;101219.03;5074560;28;20041;-72
2022/08/18 03:33:24;;;;;;;130.88;125.35;;;;;;;18.87;100.00;101225.38;5071330;28;20029;-72
2022/08/18 03:35:49;;;;;;;125.38;120.07;;;;;;;18.91;100.00;101233.84;5070718;28;20055;-72
2022/08/18 03:38:14;;;;;;;129.10;123.78;;;;;;;18.90;100.00;101227.69;5074834;28;20545;-72
2022/08/18 03:40:42;;;;;;;125.53;120.40;;;;;;;18.91;100.00;101233.84;5077113;28;20043;-72
2022/08/18 03:43:07;;;;;;;121.93;116.88;;;;;;;18.85;100.00;101219.41;5075018;28;20028;-71
2022/08/18 03:45:34;;;;;;;128.02;122.65;;;;;;;18.85;100.00;101215.91;5071903;28;20032;-71
2022/08/18 03:48:00;;;;;;;125.47;120.20;;;;;;;18.90;100.00;101222.34;5070615;28;20032;-71
2022/08/18 03:50:27;;;;;;;122.30;117.28;;;;;;;18.90;100.00;101230.34;5072206;28;20052;-72
2022/08/18 03:52:54;;;;;;;129.93;124.70;;;;;;;18.85;100.00;101226.59;5073942;28;20051;-72
2022/08/18 03:55:19;;;;;;;120.63;115.82;;;;;;;18.88;100.00;101228.91;5070836;28;20106;-72
2022/08/18 03:57:44;;;;;;;119.63;114.50;;;;;;;18.87;100.00;101233.41;5071881;28;20289;-72
2022/08/18 04:00:12;;;;;;;125.30;120.20;;;;;;;18.82;100.00;101232.34;5071582;28;20476;-72
2022/08/18 04:02:38;;;;;;;117.93;112.47;;;;;;;18.78;100.00;101223.88;5069482;28;20024;-72
2022/08/18 04:05:05;;;;;;;124.03;118.88;;;;;;;18.84;100.00;101233.81;5074292;28;20025;-72
2022/08/18 04:07:30;;;;;;;119.65;114.85;;;;;;;18.85;100.00;101239.97;5069100;28;20039;-72
2022/08/18 04:09:56;;;;;;;116.32;111.55;;;;;;;18.85;100.00;101238.13;5071052;28;20436;-71
2022/08/18 04:12:21;;;;;;;125.45;120.35;;;;;;;18.83;100.00;101234.00;5068785;28;20024;-71
2022/08/18 04:14:48;;;;;;;125.05;119.70;;;;;;;18.84;100.00;101233.00;5070845;28;20051;-71
2022/08/18 04:17:23;;;;;;;130.02;124.78;;;;;;;18.84;100.00;101233.81;5073283;28;20099;-72
2022/08/18 04:19:48;;;;;;;127.68;121.63;;;;;;;18.81;100.00;101228.84;5069350;28;20055;-71
2022/08/18 04:22:15;;;;;;;120.13;114.93;;;;;;;18.85;100.00;101239.97;5071734;28;20032;-72
2022/08/18 04:24:42;;;;;;;121.50;116.57;;;;;;;18.84;100.00;101241.84;5068873;28;20067;-72
2022/08/18 04:27:07;;;;;;;113.72;109.22;;;;;;;18.76;100.00;101243.78;5071953;28;20025;-71
2022/08/18 04:29:33;;;;;;;124.13;118.75;;;;;;;18.84;100.00;101252.53;5074775;28;20077;-71
2022/08/18 04:32:03;;;;;;;118.80;113.80;;;;;;;18.78;100.00;101245.28;5076300;28;20024;-72
2022/08/18 04:34:29;;;;;;;118.10;113.40;;;;;;;18.77;100.00;101248.97;5077063;28;20091;-72
2022/08/18 04:36:54;;;;;;;116.07;111.15;;;;;;;18.88;100.00;101272.50;5067543;28;20020;-72
2022/08/18 04:39:21;;;;;;;112.40;107.88;;;;;;;18.85;100.00;101272.88;5077210;28;20063;-72
2022/08/18 04:41:47;;;;;;;111.78;107.35;;;;;;;18.82;100.00;101257.25;5075402;28;20428;-71
2022/08/18 04:44:13;;;;;;;113.78;109.28;;;;;;;18.88;100.00;101264.50;5070294;28;20107;-71
2022/08/18 04:46:46;;;;;;;118.93;114.10;;;;;;;18.91;100.00;101266.75;5071035;28;20567;-71
2022/08/18 04:49:12;;;;;;;118.82;113.93;;;;;;;18.95;100.00;101277.09;5069882;28;20101;-71
2022/08/18 04:51:43;;;;;;;112.57;108.10;;;;;;;18.97;100.00;101275.88;5065729;28;20067;-71
2022/08/18 04:54:10;;;;;;;115.00;109.97;;;;;;;18.99;100.00;101278.31;5077584;28;20028;-71
2022/08/18 04:56:38;;;;;;;123.47;118.50;;;;;;;19.00;100.00;101270.13;5075487;28;20032;-71
2022/08/18 04:59:12;;;;;;;118.13;113.25;;;;;;;19.03;100.00;101279.59;5075061;28;20441;-71
2022/08/18 05:01:41;;;;;;;112.60;108.13;;;;;;;19.03;100.00;101280.44;5079222;28;20169;-72
2022/08/18 05:04:07;;;;;;;110.32;105.82;;;;;;;19.01;100.00;101268.25;5065135;28;20020;-72
2022/08/18 05:06:33;;;;;;;115.10;110.57;;;;;;;19.06;100.00;101274.69;5077511;28;20373;-72
2022/08/18 05:09:06;;;;;;;117.25;112.28;;;;;;;19.07;100.00;101272.84;5073982;28;20025;-72
2022/08/18 05:11:33;;;;;;;115.30;110.60;;;;;;;19.09;100.00;101273.47;5071650;28;20097;-72
2022/08/18 05:14:00;;;;;;;120.75;115.50;;;;;;;19.13;100.00;101271.25;5067921;28;20496;-72
2022/08/18 05:16:27;;;;;;;121.75;116.85;;;;;;;19.10;100.00;101283.16;5073673;28;20027;-72
2022/08/18 05:18:53;;;;;;;117.47;112.50;;;;;;;19.01;100.00;101265.59;5076788;28;20488;-72
2022/08/18 05:21:20;;;;;;;112.82;107.97;;;;;;;19.12;100.00;101278.44;5078802;28;20056;-72
2022/08/18 05:23:47;;;;;;;114.65;109.60;;;;;;;19.12;100.00;101286.47;5078952;28;20020;-72
2022/08/18 05:26:15;;;;;;;118.03;113.13;;;;;;;19.14;100.00;101292.47;5076039;28;20388;-72
2022/08/18 05:28:41;;;;;;;113.40;109.00;;;;;;;19.16;100.00;101284.22;5085677;28;20073;-72
2022/08/18 05:31:07;;;;;;;105.25;100.93;;;;;;;19.18;100.00;101283.00;5074796;28;20024;-72
2022/08/18 05:33:33;;;;;;;116.43;111.63;;;;;;;19.22;100.00;101284.25;5078762;28;20067;-72
2022/08/18 05:36:02;;;;;;;116.35;111.53;;;;;;;19.27;100.00;101280.97;5081794;28;20037;-72
2022/08/18 05:38:58;;;;;;;118.40;113.45;;;;;;;19.30;100.00;101281.44;5078960;28;20028;-72
2022/08/18 05:41:32;;;;;;;104.22;99.75;;;;;;;19.28;100.00;101272.75;5081893;28;20020;-72
2022/08/18 05:43:58;;;;;;;112.68;107.85;;;;;;;19.40;100.00;101282.91;5065314;28;20066;-72
2022/08/18 05:46:44;;;;;;;107.57;103.15;;;;;;;19.32;100.00;101268.69;5083189;28;20123;-72
2022/08/18 05:49:09;;;;;;;98.65;94.53;;;;;;;19.48;100.00;101280.91;5080062;28;20028;-72
2022/08/18 05:51:41;;;;;;;109.57;105.22;;;;;;;19.44;100.00;101268.13;5078723;28;20373;-72
2022/08/18 05:56:56;;;;;;;103.32;99.05;;;;;;;19.61;100.00;101277.47;5075391;28;20106;-71
2022/08/18 05:59:27;;;;;;;106.57;102.07;;;;;;;19.74;100.00;101284.75;5080046;28;20497;-71
2022/08/18 06:01:59;;;;;;;108.63;104.28;;;;;;;19.82;100.00;101283.78;5072409;28;20024;-71
2022/08/18 06:04:48;;;;;;;106.90;102.53;;;;;;;19.85;100.00;101288.72;5076402;28;20016;-71
2022/08/18 06:07:25;;;;;;;104.05;99.65;;;;;;;19.90;100.00;101291.59;5079907;28;20468;-71
2022/08/18 06:09:53;;;;;;;109.80;104.93;;;;;;;19.91;100.00;101288.75;5070969;28;20024;-71
2022/08/18 06:12:30;;;;;;;102.97;98.60;;;;;;;19.84;100.00;101273.69;5082599;28;20027;-71
2022/08/18 06:15:24;;;;;;;105.97;101.57;;;;;;;20.02;100.00;101290.00;5075986;28;20040;-72
2022/08/18 06:18:07;;;;;;;110.13;105.80;;;;;;;20.11;100.00;101288.78;5080978;28;20059;-71
2022/08/18 06:20:51;;;;;;;99.40;95.45;;;;;;;20.19;100.00;101292.34;5071511;28;20024;-71
2022/08/18 06:23:40;;;;;;;104.40;100.13;;;;;;;20.24;100.00;101292.53;5077990;28;20020;-72
2022/08/18 06:26:18;;;;;;;104.20;99.63;;;;;;;20.09;100.00;101272.09;5068950;28;20037;-73
2022/08/18 06:29:05;;;;;;;100.75;96.60;;;;;;;20.06;100.00;101295.81;5072497;28;20035;-72
2022/08/18 06:32:01;;;;;;;100.10;95.70;;;;;;;20.01;100.00;101293.72;5071859;28;20070;-71
2022/08/18 06:34:44;;;;;;;103.18;98.90;;;;;;;19.99;100.00;101301.16;5071920;28;20041;-71
2022/08/18 06:37:22;;;;;;;111.30;106.88;;;;;;;19.88;100.00;101302.53;5073139;28;20024;-71
2022/08/18 06:39:50;;;;;;;107.13;102.75;;;;;;;19.87;100.00;101300.06;5076903;28;20112;-71
2022/08/18 06:42:20;;;;;;;105.95;101.70;;;;;;;19.89;100.00;101306.88;5072880;28;20027;-71
2022/08/18 06:44:49;;;;;;;110.60;105.90;;;;;;;19.86;100.00;101306.44;5073174;28;20029;-71
2022/08/18 06:47:39;;;;;;;106.75;102.07;;;;;;;19.86;100.00;101317.13;5073991;28;20146;-71
2022/08/18 06:50:20;;;;;;;89.03;85.40;;;;;;;19.85;100.00;101319.00;5069177;28;20043;-71
2022/08/18 06:52:51;;;;;;;100.88;96.72;;;;;;;19.85;100.00;101315.50;5076365;28;20039;-71
2022/08/18 06:55:29;;;;;;;107.05;102.63;;;;;;;19.79;100.00;101321.66;5053745;28;20123;-71
2022/08/18 06:57:58;;;;;;;109.85;105.13;;;;;;;19.65;100.00;101310.03;5076860;28;20515;-71
2022/08/18 07:00:28;;;;;;;102.72;98.53;;;;;;;19.66;100.00;101322.38;5074218;28;20024;-71
2022/08/18 07:03:13;;;;;;;101.13;96.63;;;;;;;19.59;100.00;101327.69;5060611;28;20096;-71
2022/08/18 07:06:00;;;;;;;114.47;109.70;;;;;;;19.63;100.00;101328.97;5072878;28;20051;-71
2022/08/18 07:08:41;;;;;;;95.47;91.63;;;;;;;19.63;100.00;101328.16;5075610;28;20047;-71
2022/08/18 07:11:12;;;;;;;100.47;96.32;;;;;;;19.69;100.00;101322.00;5075281;28;20036;-71
2022/08/18 07:13:40;;;;;;;103.32;98.93;;;;;;;19.75;100.00;101331.97;5063777;28;20532;-71
2022/08/18 07:16:15;;;;;;;101.35;97.32;;;;;;;19.81;100.00;101331.13;5068666;28;20112;-71
2022/08/18 07:18:40;;;;;;;96.13;92.25;;;;;;;19.93;100.00;101334.91;5067975;28;20029;-71
2022/08/18 07:21:06;;;;;;;104.03;99.72;;;;;;;20.04;100.00;101338.03;5067370;28;20036;-71
2022/08/18 07:23:37;;;;;;;99.53;95.63;;;;;;;20.23;100.00;101334.59;5068350;28;20433;-72
2022/08/18 07:26:17;;;;;;;96.75;92.68;;;;;;;20.62;100.00;101326.84;5070311;28;20020;-71
2022/08/18 07:28:47;;;;;;;100.05;95.50;;;;;;;20.90;100.00;101340.91;5069441;28;20357;-72
2022/08/18 07:31:23;;;;;;;86.55;82.95;;;;;;;21.07;100.00;101337.81;5066445;28;20024;-72
2022/08/18 07:33:58;;;;;;;81.60;78.00;;;;;;;21.18;100.00;101342.53;5025739;28;1103024;-72
2022/08/18 07:36:28;;;;;;;72.45;69.45;;;;;;;21.17;100.00;101346.28;5065862;28;20115;-72
2022/08/18 07:39:01;;;;;;;72.38;69.30;;;;;;;21.11;100.00;101352.47;5065537;28;20027;-72
2022/08/18 07:41:34;;;;;;;65.10;62.33;;;;;;;21.00;100.00;101348.53;5065909;28;20107;-72
2022/08/18 07:44:24;;;;;;;73.10;70.18;;;;;;;20.91;100.00;101355.16;5070588;28;20157;-71
2022/08/18 07:46:59;;;;;;;81.80;78.40;;;;;;;20.99;100.00;101343.38;5080460;28;20480;-72
2022/08/18 07:49:29;;;;;;;83.45;79.85;;;;;;;20.96;100.00;101334.72;5075764;28;20028;-72
2022/08/18 07:52:20;;;;;;;71.97;69.07;;;;;;;20.99;100.00;101338.00;5076501;28;20020;-72
2022/08/18 07:55:15;;;;;;;81.20;78.10;;;;;;;20.89;100.00;101323.16;5075847;28;20782;-72
2022/08/18 07:58:02;;;;;;;80.63;77.43;;;;;;;21.10;100.00;101356.16;5073636;28;20064;-71
2022/08/18 08:00:43;;;;;;;82.25;78.82;;;;;;;20.96;100.00;101361.53;5072395;28;20024;-70
2022/08/18 08:03:36;;;;;;;84.57;81.18;;;;;;;20.98;100.00;101369.38;5079790;28;20032;-70
2022/08/18 08:06:12;;;;;;;90.15;86.57;;;;;;;21.02;100.00;101361.75;5075154;28;20107;-70
2022/08/18 08:08:53;;;;;;;93.00;89.07;;;;;;;21.15;100.00;101359.06;5076676;28;20028;-70
2022/08/18 08:11:47;;;;;;;91.80;87.70;;;;;;;21.16;100.00;101368.75;5074908;28;20039;-70
2022/08/18 08:14:31;;;;;;;90.60;86.97;;;;;;;21.10;100.00;101369.59;5075622;28;20020;-70
2022/08/18 08:17:23;;;;;;;96.70;92.82;;;;;;;20.97;100.00;101373.13;5072425;28;20028;-70
2022/08/18 08:19:54;;;;;;;94.88;91.03;;;;;;;20.84;100.00;101376.63;5055662;28;20035;-70
2022/08/18 08:22:29;;;;;;;96.80;93.05;;;;;;;20.77;100.00;101367.72;5073026;28;20458;-70
2022/08/18 08:25:23;;;;;;;97.30;93.45;;;;;;;20.65;100.00;101377.41;5070118;28;20028;-70
2022/08/18 08:28:01;;;;;;;91.70;88.07;;;;;;;20.77;100.00;101383.00;5067187;28;20500;-70
2022/08/18 08:30:30;;;;;;;103.40;99.47;;;;;;;20.79;100.00;101391.66;5065066;28;20098;-70
2022/08/18 08:33:14;;;;;;;96.60;92.68;;;;;;;20.80;100.00;101393.34;5064689;28;20024;-70
2022/08/18 08:36:01;;;;;;;90.70;86.15;;;;;;;20.98;100.00;101392.72;5065855;28;20090;-70
2022/08/18 08:38:56;;;;;;;96.18;92.15;;;;;;;21.18;100.00;101396.22;5066245;28;20055;-70
2022/08/18 08:41:34;;;;;;;84.10;80.90;;;;;;;21.67;100.00;101405.72;5063596;28;20058;-70
2022/08/18 08:44:00;;;;;;;84.72;81.00;;;;;;;22.36;100.00;101395.34;5068490;28;20024;-71
2022/08/18 08:46:33;;;;;;;85.40;81.63;;;;;;;23.28;95.95;101401.16;5067222;28;20026;-70
2022/08/18 08:49:22;;;;;;;92.88;88.93;;;;;;;24.50;89.56;101400.44;5066539;28;20222;-70
2022/08/18 08:51:56;;;;;;;56.65;54.25;;;;;;;24.81;85.57;101393.94;5065393;28;20029;-70
2022/08/18 08:54:33;;;;;;;57.55;55.15;;;;;;;24.52;83.65;101387.53;5067584;28;20484;-70
2022/08/18 08:57:01;;;;;;;57.33;55.10;;;;;;;24.25;83.47;101411.31;5072525;28;20094;-71
2022/08/18 08:59:26;;;;;;;57.70;55.08;;;;;;;24.07;84.57;101409.47;5074317;28;20093;-70
2022/08/18 09:02:00;;;;;;;50.03;47.97;;;;;;;24.08;85.77;101411.09;5074575;28;20028;-70
2022/08/18 09:04:38;;;;;;;55.10;52.90;;;;;;;24.23;84.24;101408.84;5071013;28;20085;-70
2022/08/18 09:07:21;;;;;;;55.83;53.28;;;;;;;24.25;85.65;101410.50;5074353;28;20036;-70
2022/08/18 09:09:47;;;;;;;60.15;57.72;;;;;;;24.31;84.06;101409.59;5067672;28;20594;-70
2022/08/18 09:12:24;;;;;;;55.07;52.73;;;;;;;24.07;83.69;101412.16;5078884;28;20114;-71
2022/08/18 09:15:37;;;;;;;72.60;69.68;;;;;;;23.59;83.71;101424.47;5077788;28;20297;-70
2022/08/18 09:18:20;;;;;;;80.13;76.95;;;;;;;23.34;87.30;101420.97;5034948;28;20057;-70
2022/08/18 09:21:29;;;;;;;81.05;77.88;;;;;;;23.10;86.95;101414.56;5052807;28;20463;-70
2022/08/18 09:24:27;;;;;;;90.13;86.35;;;;;;;23.05;88.84;101414.41;5005537;28;20101;-70
2022/08/18 09:27:02;;;;;;;83.03;79.47;;;;;;;23.22;87.91;101412.81;4990992;28;20045;-70
2022/08/18 09:29:36;;;;;;;81.28;78.07;;;;;;;23.31;87.20;101408.78;5003610;28;20065;-70
2022/08/18 09:32:19;;;;;;;70.15;67.15;;;;;;;23.52;88.25;101398.66;4985804;28;20037;-70
2022/08/18 09:34:55;;;;;;;77.93;74.88;;;;;;;23.58;87.07;101401.28;4986540;28;20069;-70
2022/08/18 09:37:26;;;;;;;77.60;74.50;;;;;;;23.70;85.08;101395.16;5003846;28;20512;-70
2022/08/18 09:43:05;;;;;;;65.32;62.60;;;;;;;23.97;83.56;101409.16;5000066;28;20036;-70
2022/08/18 09:45:30;;;;;;;68.43;65.53;;;;;;;24.10;83.42;101409.00;4999920;28;20023;-70
2022/08/18 09:47:57;;;;;;;62.80;60.00;;;;;;;24.18;82.24;101403.31;5012349;28;20033;-70
2022/08/18 09:50:26;;;;;;;65.13;62.58;;;;;;;24.24;83.16;101415.06;5040698;28;20029;-70
2022/08/18 09:52:52;;;;;;;66.80;64.05;;;;;;;24.11;83.13;101401.75;5041403;28;20128;-70
2022/08/18 09:55:17;;;;;;;69.05;66.22;;;;;;;24.25;82.57;101415.91;5066862;28;20115;-70
2022/08/18 09:57:45;;;;;;;61.97;59.55;;;;;;;24.48;82.70;101418.72;5075435;28;20078;-70
2022/08/18 10:00:14;;;;;;;70.47;67.40;;;;;;;24.51;80.93;101414.75;5074334;28;20115;-70
2022/08/18 10:02:40;;;;;;;60.05;57.72;;;;;;;24.76;79.48;101417.28;5077718;28;20480;-71
2022/08/18 10:05:15;;;;;;;48.85;46.83;;;;;;;25.03;78.23;101418.50;5080473;28;20024;-71
2022/08/18 10:07:47;;;;;;;50.75;48.80;;;;;;;25.01;79.06;101419.81;5072241;28;20084;-71
2022/08/18 10:10:25;;;;;;;46.33;44.50;;;;;;;25.14;78.04;101425.00;5077797;28;20384;-71
2022/08/18 10:13:08;;;;;;;49.60;47.45;;;;;;;25.33;77.69;101425.75;5080385;28;20095;-71
2022/08/18 10:15:49;;;;;;;52.47;50.35;;;;;;;25.81;74.67;101426.53;5076328;28;20106;-71
2022/08/18 10:18:30;;;;;;;46.75;44.80;;;;;;;25.45;75.83;101426.56;5062120;28;20035;-71
2022/08/18 10:21:15;;;;;;;48.40;46.53;;;;;;;25.08;76.24;101428.63;5074504;28;20031;-70
2022/08/18 10:23:43;;;;;;;58.25;55.70;;;;;;;24.88;75.92;101439.72;5076844;28;20115;-70
2022/08/18 10:26:30;;;;;;;58.65;56.00;;;;;;;24.90;77.38;101434.94;5073617;28;20046;-71
2022/08/18 10:28:58;;;;;;;62.05;59.35;;;;;;;24.84;78.13;101430.44;5076189;28;20012;-71
2022/08/18 10:31:25;;;;;;;68.03;65.10;;;;;;;24.57;77.84;101430.03;5075091;28;20035;-71
2022/08/18 10:34:08;;;;;;;70.65;67.80;;;;;;;24.48;79.80;101436.78;5076997;28;20607;-71
2022/08/18 10:36:42;;;;;;;72.90;69.93;;;;;;;24.34;78.17;101425.31;5075377;28;20037;-71
2022/08/18 10:39:14;;;;;;;76.38;73.38;;;;;;;24.15;79.37;101428.03;5071470;28;20028;-70
2022/08/18 10:42:05;;;;;;;84.60;81.28;;;;;;;23.89;81.25;101422.94;5071355;28;20024;-70
2022/08/18 10:44:33;;;;;;;;;;;;;;;23.52;82.46;101434.50;5081131;28;20400;-70
2022/08/18 10:46:59;;;;;;;97.18;93.22;;;;;;;23.41;83.08;101421.75;5073888;28;19912;-70
2022/08/18 10:49:30;;;;;;;95.13;91.45;;;;;;;23.68;83.42;101432.28;5071839;28;20024;-70
2022/08/18 10:52:05;;;;;;;;;;;;;;;23.94;81.90;101436.59;5076486;28;20078;-70
2022/08/18 10:55:01;;;;;;;91.30;87.78;;;;;;;23.97;79.42;101428.03;5074862;28;20595;-70
2022/08/18 10:57:50;;;;;;;88.22;84.80;;;;;;;23.72;80.61;101438.88;5075268;28;20059;-71
2022/08/18 11:00:21;;;;;;;84.95;81.40;;;;;;;23.75;81.22;101441.97;5075079;28;20538;-70
2022/08/18 11:02:58;;;;;;;94.03;90.32;;;;;;;23.73;81.51;101441.31;5057708;28;20468;-70
2022/08/18 11:05:26;;;;;;;92.50;89.00;;;;;;;23.63;80.04;101446.41;5076371;28;20031;-70
2022/08/18 11:08:06;;;;;;;101.43;97.47;;;;;;;23.35;80.67;101445.00;5070085;28;20082;-70
2022/08/18 11:10:47;;;;;;;105.22;101.22;;;;;;;23.30;80.63;101436.78;5072492;28;20427;-71
2022/08/18 11:13:35;;;;;;;93.00;89.45;;;;;;;23.51;81.43;101451.69;5072982;28;20081;-71
2022/08/18 11:16:30;;;;;;;103.32;99.38;;;;;;;23.52;81.88;101457.94;5076736;28;20430;-70
2022/08/18 11:19:09;;;;;;;103.93;99.97;;;;;;;23.30;81.19;101447.53;5053649;28;20525;-70
2022/08/18 11:21:41;;;;;;;95.95;92.22;;;;;;;23.28;82.22;101460.41;5054527;28;20024;-70
2022/08/18 11:24:26;;;;;;;97.60;93.90;;;;;;;23.38;80.87;101468.78;5072886;28;20491;-70
2022/08/18 11:27:01;;;;;;;105.68;101.60;;;;;;;23.32;80.78;101467.00;5074658;28;20456;-70
2022/08/18 11:29:34;;;;;;;97.80;93.85;;;;;;;23.24;81.74;101453.81;5069847;28;20061;-70
2022/08/18 11:32:08;;;;;;;101.32;97.45;;;;;;;23.43;82.05;101462.78;5069987;28;20038;-70
2022/08/18 11:34:44;;;;;;;102.30;97.82;;;;;;;23.66;82.10;101466.72;5071350;28;20048;-71